CFG2EH EDDH-EDDF
Flight info
| Callsign | CFG2EH |
|---|---|
| Flight time | N/A |
| Altitude | 30000 |
| Route | AMLUH2G AMLUH M852 DENIX DCT RIMET/N0403F310 T157 KOKEB/N0349F230 T157 KERAX KERAX5A |
| Aircraft | A20N/M-SDE2E3FGHIRWXY/LB1 |
Departure
| Time | 2026-04-24 20:01 |
|---|---|
| Airport | Hamburg Helmut Schmidt Airport (EDDH) |
Arrival
| Time | N/A |
|---|---|
| Airport | Frankfurt Main Airport (EDDF) |
| Time | Latitude | Longitude | Altitude | Speed | Heading |
|---|---|---|---|---|---|
| 2026-04-24 19:22 | 53.63208 | 10.00365 | 50 ft | 0 kts | 87° |
| 2026-04-24 19:41 | 53.63207 | 10.00359 | 50 ft | 2 kts | 87° |
| 2026-04-24 19:41 | 53.63206 | 10.00328 | 50 ft | 3 kts | 87° |
| 2026-04-24 19:41 | 53.63205 | 10.00294 | 50 ft | 3 kts | 87° |
| 2026-04-24 19:42 | 53.63205 | 10.00263 | 50 ft | 3 kts | 121° |
| 2026-04-24 19:42 | 53.63217 | 10.00247 | 44 ft | 2 kts | 174° |
| 2026-04-24 19:42 | 53.63228 | 10.00245 | 50 ft | 1 kts | 176° |
| 2026-04-24 19:42 | 53.63231 | 10.00245 | 50 ft | 0 kts | 176° |
| 2026-04-24 19:47 | 53.63230 | 10.00245 | 50 ft | 1 kts | 176° |
| 2026-04-24 19:47 | 53.63207 | 10.00248 | 50 ft | 6 kts | 176° |
| 2026-04-24 19:47 | 53.63153 | 10.00254 | 47 ft | 10 kts | 175° |
| 2026-04-24 19:47 | 53.63147 | 10.00255 | 48 ft | 0 kts | 175° |
| 2026-04-24 19:48 | 53.63139 | 10.00256 | 50 ft | 3 kts | 175° |
| 2026-04-24 19:49 | 53.63039 | 10.00230 | 50 ft | 11 kts | 211° |
| 2026-04-24 19:49 | 53.62927 | 10.00109 | 50 ft | 0 kts | 212° |
| 2026-04-24 19:53 | 53.62918 | 10.00100 | 50 ft | 4 kts | 212° |
| 2026-04-24 19:53 | 53.62906 | 10.00051 | 50 ft | 6 kts | 283° |
| 2026-04-24 19:53 | 53.62893 | 9.99902 | 50 ft | 0 kts | 242° |
| 2026-04-24 19:56 | 53.62885 | 9.99877 | 49 ft | 5 kts | 242° |
| 2026-04-24 19:57 | 53.62863 | 9.99800 | 49 ft | 10 kts | 253° |
| 2026-04-24 19:57 | 53.62905 | 9.99710 | 49 ft | 12 kts | 332° |
| 2026-04-24 19:57 | 53.62912 | 9.99705 | 49 ft | 0 kts | 333° |
| 2026-04-24 20:00 | 53.62914 | 9.99702 | 49 ft | 2 kts | 333° |
| 2026-04-24 20:00 | 53.62942 | 9.99679 | 49 ft | 7 kts | 333° |
| 2026-04-24 20:00 | 53.63026 | 9.99605 | 46 ft | 40 kts | 333° |
| 2026-04-24 20:00 | 53.63572 | 9.99132 | 50 ft | 129 kts | 332° |
| 2026-04-24 20:01 | 53.64546 | 9.98293 | 337 ft | 169 kts | 332° |
| 2026-04-24 20:01 | 53.65594 | 9.97401 | 1218 ft | 174 kts | 331° |
| 2026-04-24 20:01 | 53.66699 | 9.96461 | 2167 ft | 182 kts | 331° |
| 2026-04-24 20:01 | 53.67855 | 9.95478 | 3186 ft | 190 kts | 332° |
| 2026-04-24 20:02 | 53.68671 | 9.94814 | 3909 ft | 194 kts | 335° |
| 2026-04-24 20:02 | 53.70444 | 9.94747 | 5279 ft | 198 kts | 17° |
| 2026-04-24 20:02 | 53.71791 | 9.95516 | 6020 ft | 211 kts | 17° |
| 2026-04-24 20:02 | 53.73190 | 9.96391 | 6829 ft | 218 kts | 26° |
| 2026-04-24 20:03 | 53.74297 | 9.98158 | 7621 ft | 227 kts | 60° |
| 2026-04-24 20:03 | 53.74547 | 10.00782 | 8348 ft | 234 kts | 103° |
| 2026-04-24 20:03 | 53.73999 | 10.03393 | 9102 ft | 241 kts | 111° |
| 2026-04-24 20:03 | 53.73388 | 10.06061 | 9806 ft | 248 kts | 111° |
| 2026-04-24 20:04 | 53.72706 | 10.08950 | 9990 ft | 281 kts | 114° |
| 2026-04-24 20:04 | 53.71751 | 10.11983 | 10006 ft | 305 kts | 121° |
| 2026-04-24 20:04 | 53.70563 | 10.15204 | 10005 ft | 336 kts | 122° |
| 2026-04-24 20:04 | 53.69206 | 10.18413 | 9998 ft | 331 kts | 134° |
| 2026-04-24 20:05 | 53.67453 | 10.20715 | 9997 ft | 312 kts | 152° |
| 2026-04-24 20:05 | 53.65515 | 10.21949 | 10006 ft | 293 kts | 166° |
| 2026-04-24 20:05 | 53.63561 | 10.22813 | 9924 ft | 292 kts | 166° |
| 2026-04-24 20:05 | 53.61586 | 10.23712 | 10140 ft | 301 kts | 165° |
| 2026-04-24 20:06 | 53.59486 | 10.24676 | 10452 ft | 326 kts | 165° |
| 2026-04-24 20:06 | 53.57239 | 10.25708 | 11117 ft | 339 kts | 165° |
| 2026-04-24 20:06 | 53.54945 | 10.26761 | 12051 ft | 344 kts | 165° |
| 2026-04-24 20:06 | 53.52616 | 10.27829 | 12959 ft | 348 kts | 165° |
| 2026-04-24 20:07 | 53.51058 | 10.28541 | 13543 ft | 351 kts | 165° |
| 2026-04-24 20:07 | 53.47872 | 10.29995 | 14680 ft | 358 kts | 165° |
| 2026-04-24 20:07 | 53.45454 | 10.31097 | 15511 ft | 362 kts | 165° |
| 2026-04-24 20:07 | 53.43009 | 10.32209 | 16313 ft | 366 kts | 165° |
| 2026-04-24 20:08 | 53.40530 | 10.33332 | 17087 ft | 371 kts | 166° |
| 2026-04-24 20:08 | 53.38025 | 10.34458 | 17847 ft | 375 kts | 166° |
| 2026-04-24 20:08 | 53.35486 | 10.35597 | 18589 ft | 379 kts | 166° |
| 2026-04-24 20:08 | 53.32920 | 10.36747 | 19309 ft | 384 kts | 166° |
| 2026-04-24 20:09 | 53.30333 | 10.37906 | 20007 ft | 388 kts | 166° |
| 2026-04-24 20:09 | 53.27707 | 10.39081 | 20696 ft | 392 kts | 166° |
| 2026-04-24 20:09 | 53.25059 | 10.40266 | 21366 ft | 396 kts | 166° |
| 2026-04-24 20:09 | 53.22416 | 10.41447 | 22007 ft | 400 kts | 166° |
| 2026-04-24 20:10 | 53.19714 | 10.42652 | 22635 ft | 404 kts | 166° |
| 2026-04-24 20:10 | 53.16984 | 10.43869 | 23241 ft | 408 kts | 166° |
| 2026-04-24 20:10 | 53.14199 | 10.44894 | 23609 ft | 411 kts | 172° |
| 2026-04-24 20:10 | 53.11356 | 10.45331 | 23725 ft | 410 kts | 179° |
| 2026-04-24 20:11 | 53.08503 | 10.45166 | 23822 ft | 410 kts | 186° |
| 2026-04-24 20:11 | 53.05652 | 10.44737 | 23926 ft | 411 kts | 186° |
| 2026-04-24 20:11 | 53.02797 | 10.44321 | 24015 ft | 413 kts | 185° |
| 2026-04-24 20:11 | 52.99911 | 10.43914 | 24430 ft | 416 kts | 185° |
| 2026-04-24 20:12 | 52.97026 | 10.43516 | 25089 ft | 418 kts | 185° |
| 2026-04-24 20:12 | 52.94113 | 10.43117 | 25627 ft | 421 kts | 185° |
| 2026-04-24 20:12 | 52.91178 | 10.42716 | 26142 ft | 425 kts | 185° |
| 2026-04-24 20:12 | 52.88218 | 10.42313 | 26643 ft | 428 kts | 185° |
| 2026-04-24 20:13 | 52.85235 | 10.41907 | 27129 ft | 432 kts | 185° |
| 2026-04-24 20:13 | 52.82269 | 10.41504 | 27582 ft | 435 kts | 185° |
| 2026-04-24 20:13 | 52.79197 | 10.41087 | 28035 ft | 438 kts | 185° |
| 2026-04-24 20:13 | 52.76182 | 10.40678 | 28337 ft | 445 kts | 185° |
| 2026-04-24 20:14 | 52.73062 | 10.40255 | 28449 ft | 455 kts | 185° |
| 2026-04-24 20:14 | 52.69877 | 10.39824 | 28552 ft | 464 kts | 185° |
| 2026-04-24 20:14 | 52.66612 | 10.39383 | 28648 ft | 473 kts | 185° |
| 2026-04-24 20:15 | 52.59957 | 10.38487 | 28829 ft | 485 kts | 185° |
| 2026-04-24 20:15 | 52.56584 | 10.38034 | 29019 ft | 486 kts | 185° |
| 2026-04-24 20:15 | 52.53209 | 10.37582 | 29256 ft | 486 kts | 185° |
| 2026-04-24 20:15 | 52.49841 | 10.37131 | 29503 ft | 486 kts | 185° |
| 2026-04-24 20:16 | 52.46476 | 10.36681 | 29753 ft | 485 kts | 185° |
| 2026-04-24 20:16 | 52.43118 | 10.36233 | 30000 ft | 484 kts | 185° |
| 2026-04-24 20:16 | 52.39759 | 10.35785 | 30000 ft | 483 kts | 185° |
| 2026-04-24 20:17 | 52.33052 | 10.34893 | 29999 ft | 483 kts | 185° |
| 2026-04-24 20:17 | 52.22985 | 10.33558 | 29999 ft | 483 kts | 185° |
| 2026-04-24 20:18 | 52.16278 | 10.32673 | 29998 ft | 479 kts | 185° |
| 2026-04-24 20:18 | 52.13051 | 10.32248 | 30000 ft | 466 kts | 185° |
| 2026-04-24 20:18 | 52.09824 | 10.31824 | 30002 ft | 466 kts | 185° |
| 2026-04-24 20:19 | 52.03348 | 10.30973 | 29999 ft | 467 kts | 185° |
| 2026-04-24 20:19 | 51.96872 | 10.30125 | 30001 ft | 467 kts | 185° |
| 2026-04-24 20:20 | 51.90386 | 10.29279 | 30001 ft | 468 kts | 185° |
| 2026-04-24 20:20 | 51.83888 | 10.28434 | 29999 ft | 469 kts | 185° |
| 2026-04-24 20:21 | 51.77437 | 10.27597 | 29864 ft | 456 kts | 185° |
| 2026-04-24 20:21 | 51.74301 | 10.27191 | 29480 ft | 448 kts | 185° |
| 2026-04-24 20:21 | 51.71214 | 10.26792 | 28872 ft | 444 kts | 185° |
| 2026-04-24 20:22 | 51.68146 | 10.26396 | 28223 ft | 440 kts | 185° |
| 2026-04-24 20:22 | 51.65110 | 10.26004 | 27594 ft | 436 kts | 185° |
| 2026-04-24 20:22 | 51.62105 | 10.25617 | 26977 ft | 431 kts | 185° |
| 2026-04-24 20:22 | 51.59132 | 10.25235 | 26354 ft | 427 kts | 185° |
| 2026-04-24 20:23 | 51.56185 | 10.24857 | 25721 ft | 423 kts | 185° |
| 2026-04-24 20:23 | 51.53273 | 10.24483 | 25394 ft | 413 kts | 185° |
| 2026-04-24 20:23 | 51.50399 | 10.24115 | 25291 ft | 420 kts | 185° |
| 2026-04-24 20:23 | 51.47473 | 10.23740 | 25186 ft | 421 kts | 185° |
| 2026-04-24 20:24 | 51.45544 | 10.23493 | 25116 ft | 420 kts | 185° |
| 2026-04-24 20:24 | 51.41653 | 10.22956 | 24994 ft | 419 kts | 188° |
| 2026-04-24 20:24 | 51.38824 | 10.21869 | 25000 ft | 418 kts | 201° |
| 2026-04-24 20:24 | 51.36142 | 10.20078 | 24999 ft | 419 kts | 204° |
| 2026-04-24 20:25 | 51.33467 | 10.18226 | 24997 ft | 418 kts | 204° |
| 2026-04-24 20:25 | 51.30796 | 10.16347 | 25000 ft | 419 kts | 204° |
| 2026-04-24 20:25 | 51.28141 | 10.14464 | 24997 ft | 418 kts | 205° |
| 2026-04-24 20:25 | 51.25480 | 10.12573 | 24996 ft | 418 kts | 205° |
| 2026-04-24 20:26 | 51.22820 | 10.10684 | 25005 ft | 418 kts | 205° |
| 2026-04-24 20:26 | 51.20160 | 10.08797 | 25003 ft | 417 kts | 204° |
| 2026-04-24 20:26 | 51.17519 | 10.06926 | 24930 ft | 415 kts | 204° |
| 2026-04-24 20:26 | 51.14975 | 10.05132 | 24631 ft | 412 kts | 207° |
| 2026-04-24 20:27 | 51.12382 | 10.03319 | 24360 ft | 402 kts | 208° |
| 2026-04-24 20:27 | 51.09858 | 10.01546 | 23744 ft | 401 kts | 208° |
| 2026-04-24 20:27 | 51.07312 | 9.99750 | 23048 ft | 399 kts | 208° |
| 2026-04-24 20:27 | 51.04789 | 9.97973 | 22405 ft | 395 kts | 207° |
| 2026-04-24 20:28 | 51.02287 | 9.96214 | 21762 ft | 391 kts | 207° |
| 2026-04-24 20:28 | 50.99817 | 9.94479 | 21222 ft | 385 kts | 207° |
| 2026-04-24 20:28 | 50.97372 | 9.92764 | 20588 ft | 383 kts | 207° |
| 2026-04-24 20:28 | 50.94947 | 9.91063 | 19990 ft | 380 kts | 207° |
| 2026-04-24 20:29 | 50.93314 | 9.89919 | 19591 ft | 378 kts | 207° |
| 2026-04-24 20:29 | 50.90947 | 9.88261 | 19000 ft | 375 kts | 207° |
| 2026-04-24 20:29 | 50.88565 | 9.86594 | 18415 ft | 373 kts | 207° |
| 2026-04-24 20:29 | 50.86221 | 9.84959 | 18095 ft | 362 kts | 207° |
| 2026-04-24 20:30 | 50.83937 | 9.83368 | 17596 ft | 357 kts | 207° |
| 2026-04-24 20:30 | 50.81640 | 9.81766 | 16981 ft | 355 kts | 206° |
| 2026-04-24 20:30 | 50.79386 | 9.80195 | 16420 ft | 354 kts | 206° |
| 2026-04-24 20:30 | 50.77168 | 9.78651 | 15869 ft | 352 kts | 206° |
| 2026-04-24 20:31 | 50.74934 | 9.77099 | 15312 ft | 350 kts | 206° |
| 2026-04-24 20:31 | 50.72706 | 9.75553 | 14775 ft | 349 kts | 206° |
| 2026-04-24 20:31 | 50.70494 | 9.74020 | 14253 ft | 347 kts | 206° |
| 2026-04-24 20:31 | 50.68288 | 9.72493 | 13705 ft | 346 kts | 206° |
| 2026-04-24 20:32 | 50.66086 | 9.70971 | 13132 ft | 344 kts | 205° |
| 2026-04-24 20:32 | 50.63901 | 9.69463 | 12580 ft | 343 kts | 205° |
| 2026-04-24 20:32 | 50.61718 | 9.67957 | 12025 ft | 341 kts | 205° |
| 2026-04-24 20:32 | 50.59547 | 9.66461 | 11544 ft | 338 kts | 205° |
| 2026-04-24 20:33 | 50.57413 | 9.64993 | 11447 ft | 339 kts | 205° |
| 2026-04-24 20:33 | 50.55232 | 9.63493 | 11345 ft | 342 kts | 205° |
| 2026-04-24 20:33 | 50.53063 | 9.62003 | 11242 ft | 339 kts | 205° |
| 2026-04-24 20:33 | 50.50899 | 9.60519 | 11168 ft | 339 kts | 205° |
| 2026-04-24 20:34 | 50.48809 | 9.58823 | 11155 ft | 337 kts | 219° |
| 2026-04-24 20:34 | 50.47237 | 9.56141 | 11159 ft | 333 kts | 241° |
| 2026-04-24 20:34 | 50.46377 | 9.52792 | 11162 ft | 331 kts | 255° |
| 2026-04-24 20:34 | 50.45747 | 9.49367 | 11164 ft | 331 kts | 256° |
| 2026-04-24 20:35 | 50.45134 | 9.45898 | 11156 ft | 330 kts | 256° |
| 2026-04-24 20:35 | 50.44510 | 9.42422 | 11151 ft | 330 kts | 256° |
| 2026-04-24 20:35 | 50.43874 | 9.38966 | 11159 ft | 330 kts | 255° |
| 2026-04-24 20:35 | 50.43225 | 9.35511 | 11164 ft | 330 kts | 255° |
| 2026-04-24 20:36 | 50.42571 | 9.32067 | 11049 ft | 328 kts | 255° |
| 2026-04-24 20:36 | 50.41917 | 9.28640 | 10675 ft | 327 kts | 255° |
| 2026-04-24 20:36 | 50.41262 | 9.25220 | 10203 ft | 327 kts | 254° |
| 2026-04-24 20:36 | 50.40500 | 9.21921 | 9997 ft | 316 kts | 251° |
| 2026-04-24 20:37 | 50.39741 | 9.18766 | 9861 ft | 302 kts | 246° |
| 2026-04-24 20:37 | 50.38524 | 9.16169 | 9634 ft | 295 kts | 222° |
| 2026-04-24 20:37 | 50.36750 | 9.14610 | 9193 ft | 295 kts | 196° |
| 2026-04-24 20:37 | 50.34718 | 9.14355 | 8746 ft | 294 kts | 174° |
| 2026-04-24 20:38 | 50.32685 | 9.14679 | 8324 ft | 293 kts | 173° |
| 2026-04-24 20:38 | 50.30660 | 9.15010 | 7924 ft | 291 kts | 173° |
| 2026-04-24 20:38 | 50.28640 | 9.15140 | 7511 ft | 290 kts | 188° |
| 2026-04-24 20:38 | 50.26803 | 9.14037 | 7368 ft | 284 kts | 216° |
| 2026-04-24 20:39 | 50.25287 | 9.11999 | 7296 ft | 288 kts | 224° |
| 2026-04-24 20:39 | 50.23834 | 9.09922 | 7144 ft | 285 kts | 224° |
| 2026-04-24 20:39 | 50.22376 | 9.07838 | 6799 ft | 283 kts | 224° |
| 2026-04-24 20:39 | 50.20923 | 9.05759 | 6417 ft | 282 kts | 224° |
| 2026-04-24 20:40 | 50.19479 | 9.03690 | 6055 ft | 280 kts | 224° |
| 2026-04-24 20:40 | 50.18052 | 9.01651 | 5695 ft | 277 kts | 224° |
| 2026-04-24 20:40 | 50.16634 | 8.99629 | 5326 ft | 274 kts | 224° |
| 2026-04-24 20:40 | 50.15256 | 8.97674 | 5168 ft | 270 kts | 223° |
| 2026-04-24 20:41 | 50.13828 | 8.95650 | 5079 ft | 275 kts | 224° |
| 2026-04-24 20:41 | 50.12421 | 8.93660 | 5004 ft | 271 kts | 224° |
| 2026-04-24 20:41 | 50.11021 | 8.91685 | 4999 ft | 273 kts | 224° |
| 2026-04-24 20:41 | 50.09585 | 8.89753 | 4998 ft | 273 kts | 220° |
| 2026-04-24 20:42 | 50.08241 | 8.87706 | 4997 ft | 270 kts | 238° |
| 2026-04-24 20:42 | 50.07600 | 8.85003 | 4998 ft | 266 kts | 265° |
| 2026-04-24 20:42 | 50.07845 | 8.82197 | 5003 ft | 265 kts | 293° |
| 2026-04-24 20:42 | 50.08948 | 8.79911 | 5272 ft | 268 kts | 323° |
| 2026-04-24 20:43 | 50.10614 | 8.78705 | 5966 ft | 273 kts | 342° |
| 2026-04-24 20:43 | 50.12403 | 8.77843 | 6069 ft | 266 kts | 343° |
| 2026-04-24 20:43 | 50.14194 | 8.76983 | 6190 ft | 266 kts | 343° |
| 2026-04-24 20:43 | 50.15946 | 8.76142 | 6311 ft | 268 kts | 343° |
| 2026-04-24 20:44 | 50.17722 | 8.75284 | 6422 ft | 267 kts | 343° |
| 2026-04-24 20:44 | 50.19523 | 8.74637 | 6526 ft | 266 kts | 359° |
| 2026-04-24 20:44 | 50.21259 | 8.75211 | 6631 ft | 248 kts | 27° |
| 2026-04-24 20:44 | 50.22489 | 8.76961 | 6729 ft | 235 kts | 58° |
| 2026-04-24 20:45 | 50.23118 | 8.79329 | 6841 ft | 241 kts | 69° |
| 2026-04-24 20:45 | 50.23682 | 8.81788 | 6949 ft | 240 kts | 69° |
| 2026-04-24 20:45 | 50.24246 | 8.84248 | 6997 ft | 242 kts | 69° |
| 2026-04-24 20:45 | 50.24668 | 8.86777 | 6995 ft | 243 kts | 86° |
| 2026-04-24 20:46 | 50.24302 | 8.89347 | 6982 ft | 246 kts | 117° |
| 2026-04-24 20:46 | 50.23166 | 8.91322 | 6719 ft | 248 kts | 147° |
| 2026-04-24 20:46 | 50.21629 | 8.92550 | 6329 ft | 248 kts | 154° |
| 2026-04-24 20:46 | 50.20071 | 8.93708 | 5932 ft | 248 kts | 154° |
| 2026-04-24 20:47 | 50.18520 | 8.94871 | 5538 ft | 246 kts | 154° |
| 2026-04-24 20:47 | 50.16972 | 8.95983 | 5194 ft | 243 kts | 163° |
| 2026-04-24 20:47 | 50.15315 | 8.96091 | 5092 ft | 245 kts | 195° |
| 2026-04-24 20:47 | 50.13830 | 8.94865 | 5014 ft | 241 kts | 222° |
| 2026-04-24 20:48 | 50.12579 | 8.93137 | 4999 ft | 240 kts | 224° |
| 2026-04-24 20:48 | 50.11332 | 8.91397 | 5000 ft | 241 kts | 224° |